sensor_id;sensor_type;location;lat;lon;timestamp;P1;durP1;ratioP1;P2;durP2;ratioP2
12356;SDS011;6243;51.244;6.774;2023-03-16T00:00:09;5.73;;;3.50;;
12356;SDS011;6243;51.244;6.774;2023-03-16T00:02:35;7.13;;;3.87;;
12356;SDS011;6243;51.244;6.774;2023-03-16T00:05:02;5.10;;;3.53;;
12356;SDS011;6243;51.244;6.774;2023-03-16T00:07:28;6.43;;;3.80;;
12356;SDS011;6243;51.244;6.774;2023-03-16T00:09:54;6.23;;;3.77;;
12356;SDS011;6243;51.244;6.774;2023-03-16T00:12:20;5.27;;;3.73;;
12356;SDS011;6243;51.244;6.774;2023-03-16T00:14:47;4.93;;;3.43;;
12356;SDS011;6243;51.244;6.774;2023-03-16T00:17:14;5.10;;;3.70;;
12356;SDS011;6243;51.244;6.774;2023-03-16T00:19:40;7.73;;;3.60;;
12356;SDS011;6243;51.244;6.774;2023-03-16T00:22:07;4.17;;;3.67;;
12356;SDS011;6243;51.244;6.774;2023-03-16T00:24:33;6.77;;;3.77;;
12356;SDS011;6243;51.244;6.774;2023-03-16T00:26:58;7.33;;;3.67;;
12356;SDS011;6243;51.244;6.774;2023-03-16T00:29:24;3.97;;;3.40;;
12356;SDS011;6243;51.244;6.774;2023-03-16T00:31:49;6.90;;;3.73;;
12356;SDS011;6243;51.244;6.774;2023-03-16T00:34:14;7.47;;;3.80;;
12356;SDS011;6243;51.244;6.774;2023-03-16T00:36:40;5.13;;;4.03;;
12356;SDS011;6243;51.244;6.774;2023-03-16T00:39:07;6.27;;;3.70;;
12356;SDS011;6243;51.244;6.774;2023-03-16T00:41:33;6.90;;;4.20;;
12356;SDS011;6243;51.244;6.774;2023-03-16T00:43:58;5.00;;;3.70;;
12356;SDS011;6243;51.244;6.774;2023-03-16T00:46:24;4.97;;;3.80;;
12356;SDS011;6243;51.244;6.774;2023-03-16T00:48:49;5.57;;;3.77;;
12356;SDS011;6243;51.244;6.774;2023-03-16T00:51:15;6.13;;;3.90;;
12356;SDS011;6243;51.244;6.774;2023-03-16T00:53:42;4.77;;;3.43;;
12356;SDS011;6243;51.244;6.774;2023-03-16T00:56:10;6.37;;;3.67;;
12356;SDS011;6243;51.244;6.774;2023-03-16T00:58:37;9.53;;;4.00;;
12356;SDS011;6243;51.244;6.774;2023-03-16T01:01:04;5.33;;;3.70;;
12356;SDS011;6243;51.244;6.774;2023-03-16T01:03:31;4.47;;;3.60;;
12356;SDS011;6243;51.244;6.774;2023-03-16T01:05:57;4.10;;;3.17;;
12356;SDS011;6243;51.244;6.774;2023-03-16T01:08:28;4.67;;;3.80;;
12356;SDS011;6243;51.244;6.774;2023-03-16T01:10:53;5.33;;;3.80;;
12356;SDS011;6243;51.244;6.774;2023-03-16T01:13:20;5.03;;;3.50;;
12356;SDS011;6243;51.244;6.774;2023-03-16T01:15:48;4.83;;;3.40;;
12356;SDS011;6243;51.244;6.774;2023-03-16T01:18:14;5.40;;;3.67;;
12356;SDS011;6243;51.244;6.774;2023-03-16T01:20:40;5.33;;;3.47;;
12356;SDS011;6243;51.244;6.774;2023-03-16T01:23:05;5.60;;;3.67;;
12356;SDS011;6243;51.244;6.774;2023-03-16T01:25:30;6.57;;;3.50;;
12356;SDS011;6243;51.244;6.774;2023-03-16T01:27:56;6.27;;;4.40;;
12356;SDS011;6243;51.244;6.774;2023-03-16T01:30:23;5.53;;;3.50;;
12356;SDS011;6243;51.244;6.774;2023-03-16T01:32:49;5.60;;;3.70;;
12356;SDS011;6243;51.244;6.774;2023-03-16T01:35:14;4.27;;;3.13;;
12356;SDS011;6243;51.244;6.774;2023-03-16T01:37:40;6.27;;;3.77;;
12356;SDS011;6243;51.244;6.774;2023-03-16T01:40:06;4.87;;;3.70;;
12356;SDS011;6243;51.244;6.774;2023-03-16T01:42:40;5.03;;;3.60;;
12356;SDS011;6243;51.244;6.774;2023-03-16T01:48:08;3.53;;;3.17;;
12356;SDS011;6243;51.244;6.774;2023-03-16T01:50:34;4.77;;;3.30;;
12356;SDS011;6243;51.244;6.774;2023-03-16T01:53:00;3.83;;;2.73;;
12356;SDS011;6243;51.244;6.774;2023-03-16T01:55:25;4.07;;;3.57;;
12356;SDS011;6243;51.244;6.774;2023-03-16T01:57:51;5.50;;;3.53;;
12356;SDS011;6243;51.244;6.774;2023-03-16T02:00:17;6.17;;;3.50;;
12356;SDS011;6243;51.244;6.774;2023-03-16T02:02:45;5.50;;;3.20;;
12356;SDS011;6243;51.244;6.774;2023-03-16T02:05:14;6.13;;;3.60;;
12356;SDS011;6243;51.244;6.774;2023-03-16T02:07:46;4.10;;;3.27;;
12356;SDS011;6243;51.244;6.774;2023-03-16T02:10:12;5.30;;;3.20;;
12356;SDS011;6243;51.244;6.774;2023-03-16T02:12:39;5.60;;;3.53;;
12356;SDS011;6243;51.244;6.774;2023-03-16T02:15:04;4.20;;;3.53;;
12356;SDS011;6243;51.244;6.774;2023-03-16T02:17:31;7.43;;;3.70;;
12356;SDS011;6243;51.244;6.774;2023-03-16T02:20:01;3.97;;;3.10;;
12356;SDS011;6243;51.244;6.774;2023-03-16T02:22:38;5.73;;;3.40;;
12356;SDS011;6243;51.244;6.774;2023-03-16T02:25:07;4.20;;;3.07;;
12356;SDS011;6243;51.244;6.774;2023-03-16T02:27:34;4.83;;;3.30;;
12356;SDS011;6243;51.244;6.774;2023-03-16T02:30:07;4.10;;;3.10;;
12356;SDS011;6243;51.244;6.774;2023-03-16T02:32:34;7.23;;;3.30;;
12356;SDS011;6243;51.244;6.774;2023-03-16T02:35:01;5.07;;;3.33;;
12356;SDS011;6243;51.244;6.774;2023-03-16T02:37:27;3.77;;;3.00;;
12356;SDS011;6243;51.244;6.774;2023-03-16T02:39:53;3.87;;;2.83;;
12356;SDS011;6243;51.244;6.774;2023-03-16T02:42:20;6.40;;;3.00;;
12356;SDS011;6243;51.244;6.774;2023-03-16T02:44:48;4.60;;;3.33;;
12356;SDS011;6243;51.244;6.774;2023-03-16T02:47:22;4.27;;;2.77;;
12356;SDS011;6243;51.244;6.774;2023-03-16T02:49:52;3.73;;;2.70;;
12356;SDS011;6243;51.244;6.774;2023-03-16T02:52:18;3.77;;;3.30;;
12356;SDS011;6243;51.244;6.774;2023-03-16T02:54:43;5.20;;;3.00;;
12356;SDS011;6243;51.244;6.774;2023-03-16T02:57:09;6.57;;;3.23;;
12356;SDS011;6243;51.244;6.774;2023-03-16T02:59:35;3.57;;;2.90;;
12356;SDS011;6243;51.244;6.774;2023-03-16T03:02:00;5.00;;;3.00;;
12356;SDS011;6243;51.244;6.774;2023-03-16T03:04:27;5.53;;;3.37;;
12356;SDS011;6243;51.244;6.774;2023-03-16T03:06:52;4.53;;;2.90;;
12356;SDS011;6243;51.244;6.774;2023-03-16T03:09:18;5.07;;;3.23;;
12356;SDS011;6243;51.244;6.774;2023-03-16T03:11:44;4.90;;;3.20;;
12356;SDS011;6243;51.244;6.774;2023-03-16T03:14:10;4.03;;;2.73;;
12356;SDS011;6243;51.244;6.774;2023-03-16T03:16:35;3.40;;;2.83;;
12356;SDS011;6243;51.244;6.774;2023-03-16T03:19:01;3.67;;;2.77;;
12356;SDS011;6243;51.244;6.774;2023-03-16T03:21:28;5.07;;;3.00;;
12356;SDS011;6243;51.244;6.774;2023-03-16T03:23:53;3.50;;;2.77;;
12356;SDS011;6243;51.244;6.774;2023-03-16T03:26:19;6.50;;;2.90;;
12356;SDS011;6243;51.244;6.774;2023-03-16T03:28:45;4.00;;;3.10;;
12356;SDS011;6243;51.244;6.774;2023-03-16T03:31:14;3.30;;;2.37;;
12356;SDS011;6243;51.244;6.774;2023-03-16T03:33:40;3.40;;;2.50;;
12356;SDS011;6243;51.244;6.774;2023-03-16T03:36:05;3.47;;;2.80;;
12356;SDS011;6243;51.244;6.774;2023-03-16T03:38:32;2.97;;;2.57;;
12356;SDS011;6243;51.244;6.774;2023-03-16T03:40:58;3.90;;;3.07;;
12356;SDS011;6243;51.244;6.774;2023-03-16T03:43:23;4.10;;;2.90;;
12356;SDS011;6243;51.244;6.774;2023-03-16T03:45:53;2.77;;;2.57;;
12356;SDS011;6243;51.244;6.774;2023-03-16T03:48:19;3.87;;;3.03;;
12356;SDS011;6243;51.244;6.774;2023-03-16T03:50:45;5.47;;;3.00;;
12356;SDS011;6243;51.244;6.774;2023-03-16T03:53:10;3.00;;;2.50;;
12356;SDS011;6243;51.244;6.774;2023-03-16T03:55:37;3.97;;;2.73;;
12356;SDS011;6243;51.244;6.774;2023-03-16T03:58:03;3.80;;;2.67;;
12356;SDS011;6243;51.244;6.774;2023-03-16T04:00:28;5.07;;;3.30;;
12356;SDS011;6243;51.244;6.774;2023-03-16T04:02:54;5.33;;;2.80;;
12356;SDS011;6243;51.244;6.774;2023-03-16T04:05:19;3.47;;;3.10;;
12356;SDS011;6243;51.244;6.774;2023-03-16T04:07:45;3.67;;;2.67;;
12356;SDS011;6243;51.244;6.774;2023-03-16T04:10:10;4.70;;;3.07;;
12356;SDS011;6243;51.244;6.774;2023-03-16T04:12:37;4.53;;;3.27;;
12356;SDS011;6243;51.244;6.774;2023-03-16T04:15:03;4.70;;;2.97;;
12356;SDS011;6243;51.244;6.774;2023-03-16T04:17:29;4.40;;;2.80;;
12356;SDS011;6243;51.244;6.774;2023-03-16T04:19:54;4.40;;;2.43;;
12356;SDS011;6243;51.244;6.774;2023-03-16T04:22:20;3.57;;;2.50;;
12356;SDS011;6243;51.244;6.774;2023-03-16T04:24:45;4.60;;;2.80;;
12356;SDS011;6243;51.244;6.774;2023-03-16T04:27:11;4.97;;;2.87;;
12356;SDS011;6243;51.244;6.774;2023-03-16T04:29:38;3.20;;;2.90;;
12356;SDS011;6243;51.244;6.774;2023-03-16T04:32:03;3.57;;;2.73;;
12356;SDS011;6243;51.244;6.774;2023-03-16T04:34:29;4.13;;;2.60;;
12356;SDS011;6243;51.244;6.774;2023-03-16T04:36:54;4.63;;;2.73;;
12356;SDS011;6243;51.244;6.774;2023-03-16T04:39:20;4.53;;;2.97;;
12356;SDS011;6243;51.244;6.774;2023-03-16T04:41:45;4.07;;;2.70;;
12356;SDS011;6243;51.244;6.774;2023-03-16T04:44:11;5.47;;;3.03;;
12356;SDS011;6243;51.244;6.774;2023-03-16T04:46:38;4.47;;;2.90;;
12356;SDS011;6243;51.244;6.774;2023-03-16T04:49:03;3.73;;;3.00;;
12356;SDS011;6243;51.244;6.774;2023-03-16T04:51:29;3.43;;;2.83;;
12356;SDS011;6243;51.244;6.774;2023-03-16T04:53:55;4.50;;;3.23;;
12356;SDS011;6243;51.244;6.774;2023-03-16T04:56:20;3.03;;;2.70;;
12356;SDS011;6243;51.244;6.774;2023-03-16T04:58:46;4.27;;;3.10;;
12356;SDS011;6243;51.244;6.774;2023-03-16T05:01:13;3.73;;;2.60;;
12356;SDS011;6243;51.244;6.774;2023-03-16T05:03:41;5.17;;;3.13;;
12356;SDS011;6243;51.244;6.774;2023-03-16T05:06:07;4.50;;;2.90;;
12356;SDS011;6243;51.244;6.774;2023-03-16T05:08:32;4.20;;;3.03;;
12356;SDS011;6243;51.244;6.774;2023-03-16T05:10:58;4.30;;;3.10;;
12356;SDS011;6243;51.244;6.774;2023-03-16T05:13:23;5.00;;;3.20;;
12356;SDS011;6243;51.244;6.774;2023-03-16T05:15:49;3.77;;;3.30;;
12356;SDS011;6243;51.244;6.774;2023-03-16T05:18:14;5.63;;;3.30;;
12356;SDS011;6243;51.244;6.774;2023-03-16T05:20:41;4.57;;;3.07;;
12356;SDS011;6243;51.244;6.774;2023-03-16T05:23:06;4.67;;;3.13;;
12356;SDS011;6243;51.244;6.774;2023-03-16T05:25:32;4.97;;;3.20;;
12356;SDS011;6243;51.244;6.774;2023-03-16T05:27:58;4.50;;;3.20;;
12356;SDS011;6243;51.244;6.774;2023-03-16T05:30:23;5.40;;;3.20;;
12356;SDS011;6243;51.244;6.774;2023-03-16T05:32:49;3.40;;;2.83;;
12356;SDS011;6243;51.244;6.774;2023-03-16T05:35:14;5.90;;;3.97;;
12356;SDS011;6243;51.244;6.774;2023-03-16T05:37:42;5.03;;;3.10;;
12356;SDS011;6243;51.244;6.774;2023-03-16T05:40:09;5.07;;;3.70;;
12356;SDS011;6243;51.244;6.774;2023-03-16T05:42:36;5.40;;;3.60;;
12356;SDS011;6243;51.244;6.774;2023-03-16T05:45:02;4.30;;;3.30;;
12356;SDS011;6243;51.244;6.774;2023-03-16T05:47:28;8.17;;;3.87;;
12356;SDS011;6243;51.244;6.774;2023-03-16T05:49:53;7.17;;;3.67;;
12356;SDS011;6243;51.244;6.774;2023-03-16T05:52:19;8.60;;;4.57;;
12356;SDS011;6243;51.244;6.774;2023-03-16T05:54:46;5.20;;;4.10;;
12356;SDS011;6243;51.244;6.774;2023-03-16T05:57:11;5.27;;;3.93;;
12356;SDS011;6243;51.244;6.774;2023-03-16T05:59:37;6.43;;;3.60;;
12356;SDS011;6243;51.244;6.774;2023-03-16T06:02:02;6.17;;;3.93;;
12356;SDS011;6243;51.244;6.774;2023-03-16T06:04:28;5.13;;;3.50;;
12356;SDS011;6243;51.244;6.774;2023-03-16T06:06:53;6.27;;;3.97;;
12356;SDS011;6243;51.244;6.774;2023-03-16T06:09:19;5.97;;;3.90;;
12356;SDS011;6243;51.244;6.774;2023-03-16T06:11:46;4.60;;;3.83;;
12356;SDS011;6243;51.244;6.774;2023-03-16T06:14:11;6.73;;;4.50;;
12356;SDS011;6243;51.244;6.774;2023-03-16T06:16:37;6.17;;;3.90;;
12356;SDS011;6243;51.244;6.774;2023-03-16T06:19:02;3.80;;;3.40;;
12356;SDS011;6243;51.244;6.774;2023-03-16T06:21:28;6.97;;;4.00;;
12356;SDS011;6243;51.244;6.774;2023-03-16T06:23:53;6.33;;;3.67;;
12356;SDS011;6243;51.244;6.774;2023-03-16T06:26:19;5.57;;;3.90;;
12356;SDS011;6243;51.244;6.774;2023-03-16T06:28:46;5.23;;;4.00;;
12356;SDS011;6243;51.244;6.774;2023-03-16T06:31:12;5.83;;;4.47;;
12356;SDS011;6243;51.244;6.774;2023-03-16T06:33:37;5.60;;;4.17;;
12356;SDS011;6243;51.244;6.774;2023-03-16T06:36:03;7.53;;;4.50;;
12356;SDS011;6243;51.244;6.774;2023-03-16T06:38:29;7.47;;;4.50;;
12356;SDS011;6243;51.244;6.774;2023-03-16T06:40:54;7.73;;;4.63;;
12356;SDS011;6243;51.244;6.774;2023-03-16T06:43:19;5.97;;;4.53;;
12356;SDS011;6243;51.244;6.774;2023-03-16T06:45:46;6.67;;;4.37;;
12356;SDS011;6243;51.244;6.774;2023-03-16T06:48:12;8.57;;;3.97;;
12356;SDS011;6243;51.244;6.774;2023-03-16T06:50:37;5.33;;;4.10;;
12356;SDS011;6243;51.244;6.774;2023-03-16T06:53:03;8.83;;;4.27;;
12356;SDS011;6243;51.244;6.774;2023-03-16T06:55:28;5.07;;;4.07;;
12356;SDS011;6243;51.244;6.774;2023-03-16T06:57:54;6.47;;;4.63;;
12356;SDS011;6243;51.244;6.774;2023-03-16T07:00:19;6.27;;;4.13;;
12356;SDS011;6243;51.244;6.774;2023-03-16T07:02:47;6.17;;;4.47;;
12356;SDS011;6243;51.244;6.774;2023-03-16T07:05:12;6.23;;;5.23;;
12356;SDS011;6243;51.244;6.774;2023-03-16T07:07:38;7.77;;;4.47;;
12356;SDS011;6243;51.244;6.774;2023-03-16T07:10:03;8.17;;;5.07;;
12356;SDS011;6243;51.244;6.774;2023-03-16T07:12:29;6.20;;;4.20;;
12356;SDS011;6243;51.244;6.774;2023-03-16T07:14:55;5.87;;;4.37;;
12356;SDS011;6243;51.244;6.774;2023-03-16T07:17:20;4.57;;;3.97;;
12356;SDS011;6243;51.244;6.774;2023-03-16T07:19:47;5.17;;;4.53;;
12356;SDS011;6243;51.244;6.774;2023-03-16T07:22:13;5.23;;;4.17;;
12356;SDS011;6243;51.244;6.774;2023-03-16T07:24:38;5.77;;;4.60;;
12356;SDS011;6243;51.244;6.774;2023-03-16T07:27:04;5.43;;;4.37;;
12356;SDS011;6243;51.244;6.774;2023-03-16T07:29:29;6.07;;;4.37;;
12356;SDS011;6243;51.244;6.774;2023-03-16T07:31:55;7.90;;;4.20;;
12356;SDS011;6243;51.244;6.774;2023-03-16T07:34:20;5.77;;;4.57;;
12356;SDS011;6243;51.244;6.774;2023-03-16T07:36:47;7.30;;;4.70;;
12356;SDS011;6243;51.244;6.774;2023-03-16T07:39:13;5.20;;;4.20;;
12356;SDS011;6243;51.244;6.774;2023-03-16T07:41:38;6.87;;;4.53;;
12356;SDS011;6243;51.244;6.774;2023-03-16T07:44:04;7.63;;;4.80;;
12356;SDS011;6243;51.244;6.774;2023-03-16T07:46:29;5.93;;;4.13;;
12356;SDS011;6243;51.244;6.774;2023-03-16T07:48:55;7.00;;;4.40;;
12356;SDS011;6243;51.244;6.774;2023-03-16T07:51:20;7.03;;;4.53;;
12356;SDS011;6243;51.244;6.774;2023-03-16T07:53:47;6.00;;;4.33;;
12356;SDS011;6243;51.244;6.774;2023-03-16T07:56:13;5.90;;;4.57;;
12356;SDS011;6243;51.244;6.774;2023-03-16T07:58:39;7.93;;;5.00;;
12356;SDS011;6243;51.244;6.774;2023-03-16T08:01:04;6.03;;;4.60;;
12356;SDS011;6243;51.244;6.774;2023-03-16T08:03:30;7.50;;;4.87;;
12356;SDS011;6243;51.244;6.774;2023-03-16T08:05:55;6.90;;;4.67;;
12356;SDS011;6243;51.244;6.774;2023-03-16T08:08:21;7.10;;;5.00;;
12356;SDS011;6243;51.244;6.774;2023-03-16T08:10:48;5.23;;;4.53;;
12356;SDS011;6243;51.244;6.774;2023-03-16T08:13:15;6.13;;;4.70;;
12356;SDS011;6243;51.244;6.774;2023-03-16T08:15:40;5.13;;;4.30;;
12356;SDS011;6243;51.244;6.774;2023-03-16T08:18:06;6.80;;;5.40;;
12356;SDS011;6243;51.244;6.774;2023-03-16T08:20:31;7.27;;;5.30;;
12356;SDS011;6243;51.244;6.774;2023-03-16T08:22:56;6.57;;;4.73;;
12356;SDS011;6243;51.244;6.774;2023-03-16T08:25:22;6.30;;;4.63;;
12356;SDS011;6243;51.244;6.774;2023-03-16T08:27:49;6.80;;;4.67;;
12356;SDS011;6243;51.244;6.774;2023-03-16T08:30:15;5.57;;;4.77;;
12356;SDS011;6243;51.244;6.774;2023-03-16T08:32:41;8.80;;;4.57;;
12356;SDS011;6243;51.244;6.774;2023-03-16T08:35:08;6.17;;;4.80;;
12356;SDS011;6243;51.244;6.774;2023-03-16T08:37:35;6.23;;;4.30;;
12356;SDS011;6243;51.244;6.774;2023-03-16T08:40:01;6.93;;;5.17;;
12356;SDS011;6243;51.244;6.774;2023-03-16T08:42:26;7.00;;;5.10;;
12356;SDS011;6243;51.244;6.774;2023-03-16T08:44:53;9.17;;;5.20;;
12356;SDS011;6243;51.244;6.774;2023-03-16T08:47:19;8.23;;;4.80;;
12356;SDS011;6243;51.244;6.774;2023-03-16T08:49:45;8.87;;;5.10;;
12356;SDS011;6243;51.244;6.774;2023-03-16T08:52:11;5.33;;;4.47;;
12356;SDS011;6243;51.244;6.774;2023-03-16T08:54:37;6.40;;;5.07;;
12356;SDS011;6243;51.244;6.774;2023-03-16T08:57:04;6.60;;;4.73;;
12356;SDS011;6243;51.244;6.774;2023-03-16T08:59:30;7.10;;;5.00;;
12356;SDS011;6243;51.244;6.774;2023-03-16T09:01:57;5.87;;;5.03;;
12356;SDS011;6243;51.244;6.774;2023-03-16T09:04:23;5.87;;;5.30;;
12356;SDS011;6243;51.244;6.774;2023-03-16T09:06:49;6.97;;;5.33;;
12356;SDS011;6243;51.244;6.774;2023-03-16T09:09:14;5.90;;;4.50;;
12356;SDS011;6243;51.244;6.774;2023-03-16T09:11:40;6.37;;;5.50;;
12356;SDS011;6243;51.244;6.774;2023-03-16T09:14:05;6.20;;;5.13;;
12356;SDS011;6243;51.244;6.774;2023-03-16T09:16:31;7.10;;;4.73;;
12356;SDS011;6243;51.244;6.774;2023-03-16T09:18:58;5.90;;;4.30;;
12356;SDS011;6243;51.244;6.774;2023-03-16T09:21:24;5.87;;;4.63;;
12356;SDS011;6243;51.244;6.774;2023-03-16T09:23:49;9.20;;;5.07;;
12356;SDS011;6243;51.244;6.774;2023-03-16T09:26:15;7.57;;;4.77;;
12356;SDS011;6243;51.244;6.774;2023-03-16T09:28:40;7.30;;;4.97;;
12356;SDS011;6243;51.244;6.774;2023-03-16T09:31:06;5.03;;;4.43;;
12356;SDS011;6243;51.244;6.774;2023-03-16T09:33:33;5.67;;;5.03;;
12356;SDS011;6243;51.244;6.774;2023-03-16T09:36:01;7.53;;;5.17;;
12356;SDS011;6243;51.244;6.774;2023-03-16T09:38:27;6.13;;;4.73;;
12356;SDS011;6243;51.244;6.774;2023-03-16T09:40:56;6.27;;;4.70;;
12356;SDS011;6243;51.244;6.774;2023-03-16T09:43:26;7.30;;;5.03;;
12356;SDS011;6243;51.244;6.774;2023-03-16T09:46:07;5.20;;;4.63;;
12356;SDS011;6243;51.244;6.774;2023-03-16T09:48:36;4.93;;;4.40;;
12356;SDS011;6243;51.244;6.774;2023-03-16T09:51:05;5.23;;;4.40;;
12356;SDS011;6243;51.244;6.774;2023-03-16T09:53:37;6.43;;;3.87;;
12356;SDS011;6243;51.244;6.774;2023-03-16T09:56:04;5.63;;;4.40;;
12356;SDS011;6243;51.244;6.774;2023-03-16T09:58:34;4.53;;;3.97;;
12356;SDS011;6243;51.244;6.774;2023-03-16T10:01:01;6.53;;;4.60;;
12356;SDS011;6243;51.244;6.774;2023-03-16T10:03:35;6.97;;;4.83;;
12356;SDS011;6243;51.244;6.774;2023-03-16T10:06:23;4.30;;;3.60;;
12356;SDS011;6243;51.244;6.774;2023-03-16T10:08:50;8.13;;;3.80;;
12356;SDS011;6243;51.244;6.774;2023-03-16T10:11:25;7.50;;;4.20;;
12356;SDS011;6243;51.244;6.774;2023-03-16T10:13:55;8.63;;;4.30;;
12356;SDS011;6243;51.244;6.774;2023-03-16T10:16:29;6.30;;;4.33;;
12356;SDS011;6243;51.244;6.774;2023-03-16T10:18:59;7.13;;;4.30;;
12356;SDS011;6243;51.244;6.774;2023-03-16T10:21:32;5.43;;;4.17;;
12356;SDS011;6243;51.244;6.774;2023-03-16T10:24:02;5.20;;;4.70;;
12356;SDS011;6243;51.244;6.774;2023-03-16T10:26:36;6.80;;;4.30;;
12356;SDS011;6243;51.244;6.774;2023-03-16T10:29:08;6.00;;;4.60;;
12356;SDS011;6243;51.244;6.774;2023-03-16T10:31:35;6.00;;;4.80;;
12356;SDS011;6243;51.244;6.774;2023-03-16T10:34:03;5.00;;;3.90;;
12356;SDS011;6243;51.244;6.774;2023-03-16T10:36:32;6.07;;;4.37;;
12356;SDS011;6243;51.244;6.774;2023-03-16T10:39:00;6.23;;;4.17;;
12356;SDS011;6243;51.244;6.774;2023-03-16T10:41:28;7.77;;;5.33;;
12356;SDS011;6243;51.244;6.774;2023-03-16T10:43:55;6.27;;;4.37;;
12356;SDS011;6243;51.244;6.774;2023-03-16T10:46:22;5.87;;;4.30;;
12356;SDS011;6243;51.244;6.774;2023-03-16T10:48:50;5.03;;;4.50;;
12356;SDS011;6243;51.244;6.774;2023-03-16T10:51:17;6.00;;;3.97;;
12356;SDS011;6243;51.244;6.774;2023-03-16T10:53:49;4.73;;;4.13;;
12356;SDS011;6243;51.244;6.774;2023-03-16T10:56:18;5.00;;;4.27;;
12356;SDS011;6243;51.244;6.774;2023-03-16T10:58:45;7.27;;;4.50;;
12356;SDS011;6243;51.244;6.774;2023-03-16T11:01:11;6.23;;;4.63;;
12356;SDS011;6243;51.244;6.774;2023-03-16T11:03:46;6.77;;;4.40;;
12356;SDS011;6243;51.244;6.774;2023-03-16T11:06:16;7.77;;;4.37;;
12356;SDS011;6243;51.244;6.774;2023-03-16T11:08:45;5.60;;;3.50;;
12356;SDS011;6243;51.244;6.774;2023-03-16T11:11:15;5.73;;;3.67;;
12356;SDS011;6243;51.244;6.774;2023-03-16T11:13:43;4.40;;;3.60;;
12356;SDS011;6243;51.244;6.774;2023-03-16T11:16:14;5.97;;;3.60;;
12356;SDS011;6243;51.244;6.774;2023-03-16T11:18:46;4.50;;;3.77;;
12356;SDS011;6243;51.244;6.774;2023-03-16T11:21:16;5.20;;;3.50;;
12356;SDS011;6243;51.244;6.774;2023-03-16T11:23:47;5.10;;;3.80;;
12356;SDS011;6243;51.244;6.774;2023-03-16T11:26:20;4.13;;;3.10;;
12356;SDS011;6243;51.244;6.774;2023-03-16T11:28:52;4.13;;;3.60;;
12356;SDS011;6243;51.244;6.774;2023-03-16T11:31:25;4.03;;;3.37;;
12356;SDS011;6243;51.244;6.774;2023-03-16T11:34:01;4.20;;;3.77;;
12356;SDS011;6243;51.244;6.774;2023-03-16T11:36:31;4.03;;;3.23;;
12356;SDS011;6243;51.244;6.774;2023-03-16T11:39:09;10.53;;;3.90;;
12356;SDS011;6243;51.244;6.774;2023-03-16T11:41:47;4.33;;;3.60;;
12356;SDS011;6243;51.244;6.774;2023-03-16T11:44:24;7.30;;;3.33;;
12356;SDS011;6243;51.244;6.774;2023-03-16T11:46:58;6.53;;;3.83;;
12356;SDS011;6243;51.244;6.774;2023-03-16T11:52:21;4.67;;;2.90;;
12356;SDS011;6243;51.244;6.774;2023-03-16T11:55:00;4.70;;;3.23;;
12356;SDS011;6243;51.244;6.774;2023-03-16T11:57:37;3.30;;;3.00;;
12356;SDS011;6243;51.244;6.774;2023-03-16T12:03:06;4.90;;;3.07;;
12356;SDS011;6243;51.244;6.774;2023-03-16T12:05:55;3.27;;;2.80;;
12356;SDS011;6243;51.244;6.774;2023-03-16T12:08:27;4.67;;;2.80;;
12356;SDS011;6243;51.244;6.774;2023-03-16T12:11:08;4.37;;;2.90;;
12356;SDS011;6243;51.244;6.774;2023-03-16T12:13:52;4.83;;;3.20;;
12356;SDS011;6243;51.244;6.774;2023-03-16T12:16:25;3.73;;;2.70;;
12356;SDS011;6243;51.244;6.774;2023-03-16T12:18:56;3.10;;;2.77;;
12356;SDS011;6243;51.244;6.774;2023-03-16T12:21:25;3.13;;;2.73;;
12356;SDS011;6243;51.244;6.774;2023-03-16T12:23:55;4.43;;;2.87;;
12356;SDS011;6243;51.244;6.774;2023-03-16T12:26:24;4.90;;;2.67;;
12356;SDS011;6243;51.244;6.774;2023-03-16T12:28:56;3.07;;;2.77;;
12356;SDS011;6243;51.244;6.774;2023-03-16T12:31:27;3.77;;;2.80;;
12356;SDS011;6243;51.244;6.774;2023-03-16T12:34:03;3.57;;;3.07;;
12356;SDS011;6243;51.244;6.774;2023-03-16T12:36:54;3.50;;;2.87;;
12356;SDS011;6243;51.244;6.774;2023-03-16T12:39:40;3.80;;;2.70;;
12356;SDS011;6243;51.244;6.774;2023-03-16T12:42:21;2.30;;;2.10;;
12356;SDS011;6243;51.244;6.774;2023-03-16T12:44:59;6.23;;;2.37;;
12356;SDS011;6243;51.244;6.774;2023-03-16T12:47:29;3.17;;;2.77;;
12356;SDS011;6243;51.244;6.774;2023-03-16T12:50:02;2.70;;;2.50;;
12356;SDS011;6243;51.244;6.774;2023-03-16T12:52:37;3.37;;;2.60;;
12356;SDS011;6243;51.244;6.774;2023-03-16T12:55:07;3.63;;;2.40;;
12356;SDS011;6243;51.244;6.774;2023-03-16T12:57:38;2.50;;;2.30;;
12356;SDS011;6243;51.244;6.774;2023-03-16T13:00:07;3.27;;;2.43;;
12356;SDS011;6243;51.244;6.774;2023-03-16T13:02:36;7.07;;;2.63;;
12356;SDS011;6243;51.244;6.774;2023-03-16T13:05:07;4.37;;;2.40;;
12356;SDS011;6243;51.244;6.774;2023-03-16T13:07:34;3.60;;;2.83;;
12356;SDS011;6243;51.244;6.774;2023-03-16T13:10:03;3.47;;;2.40;;
12356;SDS011;6243;51.244;6.774;2023-03-16T13:12:33;3.70;;;2.90;;
12356;SDS011;6243;51.244;6.774;2023-03-16T13:15:00;3.10;;;2.40;;
12356;SDS011;6243;51.244;6.774;2023-03-16T13:17:28;2.83;;;2.57;;
12356;SDS011;6243;51.244;6.774;2023-03-16T13:20:02;3.37;;;2.67;;
12356;SDS011;6243;51.244;6.774;2023-03-16T13:22:40;3.60;;;2.07;;
12356;SDS011;6243;51.244;6.774;2023-03-16T13:25:13;2.63;;;2.43;;
12356;SDS011;6243;51.244;6.774;2023-03-16T13:27:41;2.40;;;2.20;;
12356;SDS011;6243;51.244;6.774;2023-03-16T13:30:15;3.67;;;2.13;;
12356;SDS011;6243;51.244;6.774;2023-03-16T13:32:44;4.37;;;2.50;;
12356;SDS011;6243;51.244;6.774;2023-03-16T13:35:12;2.70;;;2.47;;
12356;SDS011;6243;51.244;6.774;2023-03-16T13:37:39;4.67;;;2.30;;
12356;SDS011;6243;51.244;6.774;2023-03-16T13:40:15;6.10;;;2.40;;
12356;SDS011;6243;51.244;6.774;2023-03-16T13:42:45;4.27;;;2.33;;
12356;SDS011;6243;51.244;6.774;2023-03-16T13:45:12;2.27;;;2.00;;
12356;SDS011;6243;51.244;6.774;2023-03-16T13:47:41;4.33;;;2.63;;
12356;SDS011;6243;51.244;6.774;2023-03-16T13:50:11;3.60;;;2.47;;
12356;SDS011;6243;51.244;6.774;2023-03-16T13:52:38;2.80;;;2.23;;
12356;SDS011;6243;51.244;6.774;2023-03-16T13:55:05;4.83;;;2.50;;
12356;SDS011;6243;51.244;6.774;2023-03-16T13:57:39;3.97;;;2.07;;
12356;SDS011;6243;51.244;6.774;2023-03-16T14:00:12;2.30;;;2.07;;
12356;SDS011;6243;51.244;6.774;2023-03-16T14:02:41;3.50;;;2.30;;
12356;SDS011;6243;51.244;6.774;2023-03-16T14:05:08;2.23;;;1.90;;
12356;SDS011;6243;51.244;6.774;2023-03-16T14:07:37;4.17;;;2.17;;
12356;SDS011;6243;51.244;6.774;2023-03-16T14:10:04;2.43;;;1.83;;
12356;SDS011;6243;51.244;6.774;2023-03-16T14:12:31;3.60;;;2.07;;
12356;SDS011;6243;51.244;6.774;2023-03-16T14:14:56;1.67;;;1.57;;
12356;SDS011;6243;51.244;6.774;2023-03-16T14:17:22;1.80;;;1.60;;
12356;SDS011;6243;51.244;6.774;2023-03-16T14:19:49;4.53;;;1.97;;
12356;SDS011;6243;51.244;6.774;2023-03-16T14:22:16;3.33;;;1.90;;
12356;SDS011;6243;51.244;6.774;2023-03-16T14:24:50;2.23;;;1.80;;
12356;SDS011;6243;51.244;6.774;2023-03-16T14:27:18;3.67;;;1.90;;
12356;SDS011;6243;51.244;6.774;2023-03-16T14:29:51;3.30;;;2.10;;
12356;SDS011;6243;51.244;6.774;2023-03-16T14:32:22;3.20;;;1.90;;
12356;SDS011;6243;51.244;6.774;2023-03-16T14:34:49;2.43;;;1.73;;
12356;SDS011;6243;51.244;6.774;2023-03-16T14:37:14;2.27;;;1.90;;
12356;SDS011;6243;51.244;6.774;2023-03-16T14:39:40;3.83;;;1.70;;
12356;SDS011;6243;51.244;6.774;2023-03-16T14:42:13;2.20;;;1.80;;
12356;SDS011;6243;51.244;6.774;2023-03-16T14:44:43;3.10;;;1.80;;
12356;SDS011;6243;51.244;6.774;2023-03-16T14:47:09;2.20;;;2.00;;
12356;SDS011;6243;51.244;6.774;2023-03-16T14:49:45;2.67;;;1.60;;
12356;SDS011;6243;51.244;6.774;2023-03-16T14:52:13;1.67;;;1.57;;
12356;SDS011;6243;51.244;6.774;2023-03-16T14:54:46;3.10;;;1.80;;
12356;SDS011;6243;51.244;6.774;2023-03-16T14:57:14;4.47;;;1.60;;
12356;SDS011;6243;51.244;6.774;2023-03-16T14:59:41;4.40;;;1.80;;
12356;SDS011;6243;51.244;6.774;2023-03-16T15:02:09;2.87;;;1.80;;
12356;SDS011;6243;51.244;6.774;2023-03-16T15:04:40;4.33;;;1.73;;
12356;SDS011;6243;51.244;6.774;2023-03-16T15:07:12;1.97;;;1.80;;
12356;SDS011;6243;51.244;6.774;2023-03-16T15:09:46;3.10;;;1.70;;
12356;SDS011;6243;51.244;6.774;2023-03-16T15:12:12;6.33;;;2.13;;